Time;durP1;ratioP1;P1;durP2;ratioP2;P2;SDS_P1;SDS_P2;PMS_P1;PMS_P2;Temp;Humidity;BMP_temperature;BMP_pressure;BME280_temperature;BME280_humidity;BME280_pressure;Samples;Min_cycle;Max_cycle;Signal;HPM_P1;HPM_P2
2021/12/20 00:00:38;;;;;;;0.30;0.20;;;2.50;99.90;;;;;;5069718;28;20196;-89
2021/12/20 00:03:05;;;;;;;2.10;2.10;;;2.50;99.90;;;;;;5067212;28;20540;-88
2021/12/20 00:05:32;;;;;;;0.30;0.10;;;2.50;99.90;;;;;;5089215;28;20947;-89
2021/12/20 00:08:01;;;;;;;0.30;0.10;;;2.40;99.90;;;;;;5074099;28;20208;-89
2021/12/20 00:10:28;;;;;;;0.30;0.10;;;2.40;99.90;;;;;;5080003;28;20199;-88
2021/12/20 00:12:55;;;;;;;0.30;0.10;;;2.40;99.90;;;;;;5067664;28;20664;-89
2021/12/20 00:15:22;;;;;;;0.30;0.10;;;2.40;99.90;;;;;;5063104;28;20451;-90
2021/12/20 00:17:49;;;;;;;0.30;0.10;;;2.40;99.90;;;;;;5052225;28;20460;-89
2021/12/20 00:20:17;;;;;;;0.30;0.20;;;2.40;99.90;;;;;;5063412;28;20964;-88
2021/12/20 00:22:44;;;;;;;0.30;0.17;;;2.40;99.90;;;;;;5068113;28;20550;-88
2021/12/20 00:25:13;;;;;;;0.30;0.10;;;2.40;99.90;;;;;;5059071;28;20459;-88
2021/12/20 00:27:40;;;;;;;0.30;0.10;;;2.30;99.90;;;;;;5068445;28;20213;-88
2021/12/20 00:30:10;;;;;;;0.30;0.10;;;2.30;99.90;;;;;;5057743;28;20718;-88
2021/12/20 00:32:37;;;;;;;0.30;0.10;;;2.30;99.90;;;;;;5049423;28;20204;-89
2021/12/20 00:35:06;;;;;;;0.30;0.10;;;2.30;99.90;;;;;;5053725;28;20851;-89
2021/12/20 00:40:21;;;;;;;0.30;0.10;;;2.30;99.90;;;;;;5061065;28;20671;-89
2021/12/20 00:42:49;;;;;;;0.30;0.10;;;2.40;99.90;;;;;;5064490;28;20714;-89
2021/12/20 00:45:17;;;;;;;0.30;0.10;;;2.30;99.90;;;;;;5057657;28;20198;-88
2021/12/20 00:47:44;;;;;;;0.30;0.10;;;2.40;99.90;;;;;;5060720;28;20204;-88
2021/12/20 00:50:14;;;;;;;0.30;0.20;;;2.30;99.90;;;;;;5065694;28;20984;-89
2021/12/20 00:52:42;;;;;;;0.43;0.43;;;2.30;99.90;;;;;;5068194;28;20527;-89
2021/12/20 00:55:10;;;;;;;0.30;0.10;;;2.30;99.90;;;;;;5069506;28;20448;-90
2021/12/20 00:57:38;;;;;;;0.30;0.10;;;2.30;99.90;;;;;;5069117;28;20462;-90
2021/12/20 01:00:07;;;;;;;0.30;0.10;;;2.20;99.90;;;;;;5080411;28;20526;-88
2021/12/20 01:02:34;;;;;;;0.30;0.10;;;2.20;99.90;;;;;;5091468;28;20483;-89
2021/12/20 01:05:01;;;;;;;0.30;0.10;;;2.20;99.90;;;;;;5079725;28;20512;-89
2021/12/20 01:07:29;;;;;;;0.30;0.10;;;2.20;99.90;;;;;;5070701;28;20195;-90
2021/12/20 01:09:59;;;;;;;0.30;0.20;;;2.20;99.90;;;;;;5073054;28;20964;-89
2021/12/20 01:12:31;;;;;;;0.30;0.10;;;2.20;99.90;;;;;;5066523;28;20467;-89
2021/12/20 01:15:01;;;;;;;0.30;0.10;;;2.20;99.90;;;;;;5066926;28;20458;-89
2021/12/20 01:17:29;;;;;;;0.30;0.10;;;2.20;99.90;;;;;;5071760;28;20537;-88
2021/12/20 01:19:57;;;;;;;0.30;0.10;;;2.20;99.90;;;;;;5072485;28;20934;-88
2021/12/20 01:22:24;;;;;;;0.30;0.10;;;2.20;99.90;;;;;;5058804;28;20481;-88
2021/12/20 01:24:51;;;;;;;0.30;0.20;;;2.20;99.90;;;;;;5073550;28;20536;-89
2021/12/20 01:27:18;;;;;;;0.30;0.10;;;2.20;99.90;;;;;;5056517;28;20493;-88
2021/12/20 01:29:45;;;;;;;0.30;0.20;;;2.20;99.90;;;;;;5058705;28;20860;-89
2021/12/20 01:32:13;;;;;;;0.30;0.10;;;2.20;99.90;;;;;;5061264;28;20520;-89
2021/12/20 01:34:40;;;;;;;0.30;0.10;;;2.20;99.90;;;;;;5064749;28;20456;-89
2021/12/20 01:37:07;;;;;;;0.30;0.20;;;2.20;99.90;;;;;;5064231;28;20464;-89
2021/12/20 01:39:34;;;;;;;0.30;0.10;;;2.20;99.90;;;;;;5069001;28;21224;-89
2021/12/20 01:42:04;;;;;;;0.30;0.10;;;2.20;99.90;;;;;;5072349;28;20288;-89
2021/12/20 01:44:31;;;;;;;0.30;0.20;;;2.20;99.90;;;;;;5071940;28;20442;-89
2021/12/20 01:47:02;;;;;;;0.30;0.20;;;2.20;99.90;;;;;;5062787;28;20579;-89
2021/12/20 01:49:39;;;;;;;0.50;0.50;;;2.30;99.90;;;;;;5070839;28;20632;-88
2021/12/20 01:52:12;;;;;;;0.30;0.20;;;2.20;99.90;;;;;;5068352;28;20248;-89
2021/12/20 01:54:39;;;;;;;0.30;0.10;;;2.30;99.90;;;;;;5067020;28;20463;-88
2021/12/20 01:57:06;;;;;;;0.30;0.10;;;2.20;99.90;;;;;;5071226;28;20284;-89
2021/12/20 01:59:33;;;;;;;0.30;0.10;;;2.20;99.90;;;;;;5081212;28;20212;-89
2021/12/20 02:02:00;;;;;;;1.40;0.40;;;2.20;99.90;;;;;;5065708;28;20553;-89
2021/12/20 02:04:28;;;;;;;0.30;0.10;;;2.20;99.90;;;;;;5065334;28;20736;-88
2021/12/20 02:06:56;;;;;;;0.30;0.10;;;2.20;99.90;;;;;;5066278;28;20731;-88
2021/12/20 02:09:23;;;;;;;0.30;0.20;;;2.20;99.90;;;;;;5069254;28;20208;-87
2021/12/20 02:11:51;;;;;;;0.30;0.10;;;2.20;99.90;;;;;;5068538;28;20237;-88
2021/12/20 02:14:19;;;;;;;0.30;0.10;;;2.20;99.90;;;;;;5073095;28;20254;-89
2021/12/20 02:16:47;;;;;;;0.30;0.10;;;2.20;99.90;;;;;;5067847;28;20451;-89
2021/12/20 02:19:17;;;;;;;0.40;0.40;;;2.30;99.90;;;;;;5068580;28;20243;-90
2021/12/20 02:21:46;;;;;;;0.30;0.10;;;2.30;99.90;;;;;;5071927;28;20863;-88
2021/12/20 02:24:14;;;;;;;0.30;0.10;;;2.20;99.90;;;;;;5060149;28;20521;-89
2021/12/20 02:26:41;;;;;;;0.30;0.10;;;2.20;99.90;;;;;;5058432;28;20783;-90
2021/12/20 02:29:09;;;;;;;0.30;0.10;;;2.20;99.90;;;;;;5074040;28;20770;-89
2021/12/20 02:37:27;;;;;;;0.30;0.10;;;2.20;99.90;;;;;;5069624;28;21106;-89
2021/12/20 02:39:56;;;;;;;0.30;0.20;;;2.20;99.90;;;;;;5066416;28;20509;-89
2021/12/20 02:42:28;;;;;;;0.30;0.10;;;2.20;99.90;;;;;;5070452;28;21353;-90
2021/12/20 02:45:08;;;;;;;0.30;0.10;;;2.20;99.90;;;;;;5072514;28;20470;-89
2021/12/20 02:47:38;;;;;;;0.30;0.20;;;2.30;99.90;;;;;;5063018;28;20463;-90
2021/12/20 02:50:06;;;;;;;0.30;0.10;;;2.30;99.90;;;;;;5068846;28;20261;-89
2021/12/20 02:52:35;;;;;;;0.30;0.10;;;2.30;99.90;;;;;;5070757;28;21012;-89
2021/12/20 02:55:02;;;;;;;0.30;0.10;;;2.20;99.90;;;;;;5087534;28;20481;-88
2021/12/20 02:57:30;;;;;;;0.30;0.10;;;2.20;99.90;;;;;;5073309;28;20489;-88
2021/12/20 02:59:57;;;;;;;0.30;0.10;;;2.20;99.90;;;;;;5074196;28;20753;-89
2021/12/20 03:02:24;;;;;;;0.30;0.10;;;2.20;99.90;;;;;;5062571;28;20494;-88
2021/12/20 03:04:51;;;;;;;0.30;0.10;;;2.20;99.90;;;;;;5071066;28;20458;-88
2021/12/20 03:07:24;;;;;;;0.30;0.20;;;2.30;99.90;;;;;;5065559;28;20465;-89
2021/12/20 03:09:57;;;;;;;0.30;0.10;;;2.30;99.90;;;;;;5066292;28;20456;-88
2021/12/20 03:12:28;;;;;;;0.30;0.10;;;2.30;99.90;;;;;;5068624;28;20459;-89
2021/12/20 03:15:01;;;;;;;0.30;0.10;;;2.30;99.90;;;;;;5072705;28;20535;-89
2021/12/20 03:17:28;;;;;;;0.30;0.10;;;2.30;99.90;;;;;;5055450;28;20510;-88
2021/12/20 03:19:55;;;;;;;0.60;0.60;;;2.40;99.90;;;;;;5056151;28;20463;-88
2021/12/20 03:22:22;;;;;;;0.30;0.20;;;2.40;99.90;;;;;;5057028;28;20482;-88
2021/12/20 03:24:49;;;;;;;0.30;0.20;;;2.40;99.90;;;;;;5065481;28;20204;-89
2021/12/20 03:27:18;;;;;;;0.30;0.10;;;2.30;99.90;;;;;;5071295;28;20485;-90
2021/12/20 03:29:45;;;;;;;0.30;0.10;;;2.40;99.90;;;;;;5068861;28;20205;-88
2021/12/20 03:32:12;;;;;;;0.30;0.10;;;2.30;99.90;;;;;;5055163;28;20279;-88
2021/12/20 03:34:39;;;;;;;1.40;1.40;;;2.30;99.90;;;;;;5062068;28;20197;-89
2021/12/20 03:37:06;;;;;;;0.30;0.20;;;2.40;99.90;;;;;;5056535;28;20258;-89
2021/12/20 03:39:33;;;;;;;0.30;0.10;;;2.30;99.90;;;;;;5066580;28;20514;-89
2021/12/20 03:42:01;;;;;;;0.30;0.10;;;2.40;99.90;;;;;;5069922;28;20667;-89
2021/12/20 03:44:32;;;;;;;0.30;0.10;;;2.30;99.90;;;;;;5069241;28;20207;-88
2021/12/20 03:46:59;;;;;;;0.30;0.20;;;2.40;99.90;;;;;;5059660;28;20267;-88
2021/12/20 03:49:26;;;;;;;0.60;0.60;;;2.30;99.90;;;;;;5071529;28;20476;-88
2021/12/20 03:51:53;;;;;;;0.30;0.10;;;2.30;99.90;;;;;;5086516;28;20197;-88
2021/12/20 03:54:20;;;;;;;2.35;0.77;;;2.40;99.90;;;;;;5080980;28;20203;-88
2021/12/20 03:56:47;;;;;;;0.30;0.20;;;2.30;99.90;;;;;;5063467;28;20214;-88
2021/12/20 03:59:14;;;;;;;0.30;0.10;;;2.30;99.90;;;;;;5072490;28;20200;-88
2021/12/20 04:01:43;;;;;;;0.30;0.10;;;2.40;99.90;;;;;;5056607;28;20663;-89
2021/12/20 04:04:10;;;;;;;0.30;0.10;;;2.40;99.90;;;;;;5063314;28;20229;-88
2021/12/20 04:06:37;;;;;;;0.30;0.10;;;2.40;99.90;;;;;;5068863;28;20708;-88
2021/12/20 04:09:05;;;;;;;0.30;0.10;;;2.40;99.90;;;;;;5069282;28;20213;-88
2021/12/20 04:11:32;;;;;;;0.30;0.10;;;2.40;99.90;;;;;;5063492;28;20689;-88
2021/12/20 04:13:59;;;;;;;0.40;0.40;;;2.40;99.90;;;;;;5065004;28;20462;-89
2021/12/20 04:16:26;;;;;;;0.30;0.10;;;2.40;99.90;;;;;;5069450;28;20345;-89
2021/12/20 04:18:55;;;;;;;0.30;0.20;;;2.40;99.90;;;;;;5068537;28;20588;-88
2021/12/20 04:21:22;;;;;;;0.30;0.10;;;2.50;99.90;;;;;;5069872;28;20265;-88
2021/12/20 04:23:49;;;;;;;0.30;0.20;;;2.50;99.90;;;;;;5067327;28;20221;-89
2021/12/20 04:26:16;;;;;;;0.30;0.10;;;2.50;99.90;;;;;;5066848;28;20952;-88
2021/12/20 04:28:43;;;;;;;0.30;0.10;;;2.50;99.90;;;;;;5064388;28;20464;-89
2021/12/20 04:31:10;;;;;;;0.38;0.17;;;2.50;99.90;;;;;;5064382;28;20253;-88
2021/12/20 04:33:37;;;;;;;0.30;0.20;;;2.50;99.90;;;;;;5068565;28;20201;-89
2021/12/20 04:36:07;;;;;;;0.30;0.20;;;2.50;99.90;;;;;;5073068;28;20293;-89
2021/12/20 04:38:34;;;;;;;1.80;0.67;;;2.50;99.90;;;;;;5071441;28;20522;-88
2021/12/20 04:41:01;;;;;;;0.33;0.17;;;2.50;99.90;;;;;;5064321;28;20466;-88
2021/12/20 04:43:28;;;;;;;0.30;0.10;;;2.50;99.90;;;;;;5070547;28;20549;-89
2021/12/20 04:45:55;;;;;;;0.30;0.20;;;2.50;99.90;;;;;;5073438;28;20517;-88
2021/12/20 04:48:22;;;;;;;0.30;0.10;;;2.50;99.90;;;;;;5082735;28;20843;-88
2021/12/20 04:50:49;;;;;;;0.30;0.10;;;2.50;99.90;;;;;;5080892;28;20443;-87
2021/12/20 04:53:17;;;;;;;0.30;0.10;;;2.60;99.90;;;;;;5071358;28;20882;-88
2021/12/20 04:55:44;;;;;;;0.30;0.10;;;2.60;99.90;;;;;;5069521;28;20459;-88
2021/12/20 04:58:12;;;;;;;1.50;1.40;;;2.60;99.90;;;;;;5064859;28;20456;-88
2021/12/20 05:00:40;;;;;;;0.30;0.23;;;2.60;99.90;;;;;;5066631;28;20250;-89
2021/12/20 05:03:08;;;;;;;0.30;0.10;;;2.60;99.90;;;;;;5072487;28;21261;-89
2021/12/20 05:05:37;;;;;;;0.30;0.10;;;2.60;99.90;;;;;;5068520;28;20462;-88
2021/12/20 05:08:05;;;;;;;1.70;0.97;;;2.60;99.90;;;;;;5076123;28;20467;-89
2021/12/20 05:10:34;;;;;;;0.50;0.40;;;2.70;99.90;;;;;;5074797;28;20455;-89
2021/12/20 05:13:03;;;;;;;0.40;0.20;;;2.70;99.90;;;;;;5069509;28;20910;-89
2021/12/20 05:15:31;;;;;;;0.30;0.10;;;2.70;99.90;;;;;;5072239;28;20467;-91
2021/12/20 05:17:58;;;;;;;0.30;0.10;;;2.70;99.90;;;;;;5063671;28;20796;-89
2021/12/20 05:20:26;;;;;;;0.30;0.10;;;2.70;99.90;;;;;;5073948;28;20477;-90
2021/12/20 05:22:54;;;;;;;0.30;0.10;;;2.80;99.90;;;;;;5073311;28;20824;-90
2021/12/20 05:25:21;;;;;;;0.30;0.10;;;2.70;99.90;;;;;;5069542;28;21240;-90
2021/12/20 05:27:50;;;;;;;0.30;0.10;;;2.70;99.90;;;;;;5070770;28;20452;-88
2021/12/20 05:30:18;;;;;;;1.57;0.30;;;2.70;99.90;;;;;;5063490;28;20456;-88
2021/12/20 05:32:46;;;;;;;0.30;0.13;;;2.70;99.90;;;;;;5051728;28;20931;-88
2021/12/20 05:35:15;;;;;;;0.30;0.20;;;2.70;99.90;;;;;;5069900;28;20453;-88
2021/12/20 05:37:43;;;;;;;0.30;0.10;;;2.70;99.90;;;;;;5071093;28;20555;-87
2021/12/20 05:40:12;;;;;;;0.30;0.20;;;2.70;99.90;;;;;;5066249;28;20456;-87
2021/12/20 05:42:39;;;;;;;3.50;1.10;;;2.70;99.90;;;;;;5056582;28;20460;-87
2021/12/20 05:45:09;;;;;;;0.30;0.10;;;2.70;99.90;;;;;;5086229;28;20494;-88
2021/12/20 05:47:36;;;;;;;0.30;0.17;;;2.70;99.90;;;;;;5096591;28;20448;-87
2021/12/20 05:50:05;;;;;;;0.30;0.10;;;2.70;99.90;;;;;;5077588;28;20496;-87
2021/12/20 05:52:32;;;;;;;0.30;0.10;;;2.70;99.90;;;;;;5058200;28;21431;-87
2021/12/20 05:54:59;;;;;;;0.40;0.30;;;2.70;99.90;;;;;;5069076;28;20447;-87
2021/12/20 05:57:26;;;;;;;0.30;0.10;;;2.70;99.90;;;;;;5054341;28;20448;-87
2021/12/20 05:59:53;;;;;;;0.30;0.10;;;2.70;99.90;;;;;;5056585;28;20968;-87
2021/12/20 06:02:22;;;;;;;1.17;1.17;;;2.70;99.90;;;;;;5070774;28;20467;-87
2021/12/20 06:04:50;;;;;;;0.30;0.10;;;2.70;99.90;;;;;;5069721;28;20487;-88
2021/12/20 06:07:19;;;;;;;0.50;0.47;;;2.70;99.90;;;;;;5071568;28;20451;-87
2021/12/20 06:09:46;;;;;;;0.30;0.10;;;2.70;99.90;;;;;;5061095;28;20561;-87
2021/12/20 06:12:13;;;;;;;0.70;0.70;;;2.70;99.90;;;;;;5070089;28;20494;-87
2021/12/20 06:14:40;;;;;;;0.30;0.20;;;2.70;99.90;;;;;;5068203;28;20517;-87
2021/12/20 06:17:07;;;;;;;0.30;0.10;;;2.70;99.90;;;;;;5069897;28;20438;-87
2021/12/20 06:19:35;;;;;;;0.77;0.27;;;2.70;99.90;;;;;;5067143;28;20494;-88
2021/12/20 06:22:04;;;;;;;0.30;0.10;;;2.70;99.90;;;;;;5060771;28;20519;-87
2021/12/20 06:24:31;;;;;;;0.30;0.10;;;2.70;99.90;;;;;;5053500;28;20511;-87
2021/12/20 06:26:58;;;;;;;0.30;0.10;;;2.70;99.90;;;;;;5070976;28;20204;-87
2021/12/20 06:29:25;;;;;;;0.30;0.10;;;2.70;99.90;;;;;;5071118;28;20201;-88
2021/12/20 06:31:52;;;;;;;0.43;0.43;;;2.60;99.90;;;;;;5067706;28;20205;-87
2021/12/20 06:34:20;;;;;;;0.30;0.10;;;2.70;99.90;;;;;;5064911;28;20197;-87
2021/12/20 06:36:48;;;;;;;1.10;1.10;;;2.60;99.90;;;;;;5057271;28;20447;-87
2021/12/20 06:39:16;;;;;;;0.30;0.10;;;2.70;99.90;;;;;;5063190;28;20490;-88
2021/12/20 06:41:44;;;;;;;0.30;0.10;;;2.70;99.90;;;;;;5080148;28;20446;-87
2021/12/20 06:44:11;;;;;;;0.30;0.10;;;2.70;99.90;;;;;;5077520;28;20524;-87
2021/12/20 06:46:41;;;;;;;0.30;0.10;;;2.70;99.90;;;;;;5060810;28;20504;-88
2021/12/20 06:49:10;;;;;;;0.30;0.10;;;2.70;99.90;;;;;;5072407;28;20522;-87
2021/12/20 06:51:40;;;;;;;0.30;0.10;;;2.60;99.90;;;;;;5062400;28;20448;-87
2021/12/20 06:54:09;;;;;;;0.30;0.10;;;2.70;99.90;;;;;;5059980;28;20923;-87
2021/12/20 06:56:36;;;;;;;0.30;0.10;;;2.70;99.90;;;;;;5052839;28;20471;-88
2021/12/20 06:59:03;;;;;;;0.40;0.37;;;2.70;99.90;;;;;;5067617;28;20440;-89
2021/12/20 07:01:31;;;;;;;0.30;0.10;;;2.70;99.90;;;;;;5069416;28;20565;-88
2021/12/20 07:03:58;;;;;;;0.30;0.10;;;2.70;99.90;;;;;;5071558;28;20479;-87
2021/12/20 07:06:25;;;;;;;0.30;0.20;;;2.70;99.90;;;;;;5070645;28;20444;-86
2021/12/20 07:08:52;;;;;;;0.30;0.10;;;2.70;99.90;;;;;;5069514;28;20942;-87
2021/12/20 07:11:20;;;;;;;0.30;0.10;;;2.70;99.90;;;;;;5071203;28;20793;-88
2021/12/20 07:13:47;;;;;;;0.40;0.40;;;2.70;99.90;;;;;;5068453;28;20486;-88
2021/12/20 07:16:15;;;;;;;0.30;0.20;;;2.60;99.90;;;;;;5070052;28;20497;-88
2021/12/20 07:18:42;;;;;;;0.30;0.10;;;2.60;99.90;;;;;;5070985;28;20458;-88
2021/12/20 07:21:09;;;;;;;0.30;0.20;;;2.60;99.90;;;;;;5071314;28;20440;-88
2021/12/20 07:23:36;;;;;;;0.30;0.10;;;2.60;99.90;;;;;;5069341;28;20568;-88
2021/12/20 07:26:04;;;;;;;0.30;0.10;;;2.60;99.90;;;;;;5070662;28;20496;-87
2021/12/20 07:28:32;;;;;;;0.30;0.10;;;2.50;99.90;;;;;;5070019;28;20909;-89
2021/12/20 07:30:59;;;;;;;0.63;0.57;;;2.50;99.90;;;;;;5070764;28;20443;-88
2021/12/20 07:33:26;;;;;;;0.30;0.10;;;2.60;99.90;;;;;;5068189;28;20517;-88
2021/12/20 07:35:53;;;;;;;2.03;0.93;;;2.60;99.90;;;;;;5067217;28;20500;-88
2021/12/20 07:38:20;;;;;;;0.30;0.10;;;2.60;99.90;;;;;;5069284;28;20550;-90
2021/12/20 07:40:50;;;;;;;0.30;0.10;;;2.50;99.90;;;;;;5072297;28;20443;-88
2021/12/20 07:43:19;;;;;;;0.30;0.10;;;2.40;99.90;;;;;;5074328;28;20930;-88
2021/12/20 07:45:48;;;;;;;0.30;0.10;;;2.40;99.90;;;;;;5064245;28;20441;-87
2021/12/20 07:48:16;;;;;;;0.30;0.10;;;2.30;99.90;;;;;;5069970;28;20911;-87
2021/12/20 07:50:43;;;;;;;0.30;0.10;;;2.30;99.90;;;;;;5069703;28;20270;-87
2021/12/20 07:53:10;;;;;;;0.30;0.17;;;2.20;99.90;;;;;;5069263;28;20243;-87
2021/12/20 07:55:37;;;;;;;0.30;0.20;;;2.20;99.90;;;;;;5064722;28;20204;-87
2021/12/20 07:58:04;;;;;;;0.30;0.10;;;2.20;99.90;;;;;;5054206;28;20463;-88
2021/12/20 08:00:31;;;;;;;0.73;0.73;;;2.20;99.90;;;;;;5048983;28;20259;-88
2021/12/20 08:03:00;;;;;;;0.30;0.20;;;2.30;99.90;;;;;;5052038;28;20686;-87
2021/12/20 08:05:28;;;;;;;2.87;2.77;;;2.30;99.90;;;;;;5066604;28;20512;-88
2021/12/20 08:07:55;;;;;;;0.30;0.10;;;2.40;99.90;;;;;;5048932;28;20517;-87
2021/12/20 08:10:25;;;;;;;0.30;0.10;;;2.50;99.90;;;;;;5067066;28;20501;-87
2021/12/20 08:12:52;;;;;;;0.30;0.10;;;2.50;99.90;;;;;;5068795;28;20945;-87
2021/12/20 08:15:21;;;;;;;1.33;0.77;;;2.60;99.90;;;;;;5069825;28;21059;-87
2021/12/20 08:17:48;;;;;;;0.40;0.40;;;2.50;99.90;;;;;;5069626;28;20512;-88
2021/12/20 08:20:17;;;;;;;0.30;0.10;;;2.50;99.90;;;;;;5069075;28;20464;-87
2021/12/20 08:22:44;;;;;;;2.03;1.93;;;2.40;99.90;;;;;;5070429;28;20456;-87
2021/12/20 08:25:11;;;;;;;0.30;0.10;;;2.40;99.90;;;;;;5068646;28;20485;-88
2021/12/20 08:27:38;;;;;;;1.13;1.13;;;2.40;99.90;;;;;;5070102;28;20549;-87
2021/12/20 08:30:06;;;;;;;0.30;0.10;;;2.30;99.90;;;;;;5069676;28;21027;-88
2021/12/20 08:32:33;;;;;;;0.30;0.10;;;2.30;99.90;;;;;;5069404;28;20939;-88
2021/12/20 08:35:00;;;;;;;0.30;0.10;;;2.30;99.90;;;;;;5083016;28;20494;-87
2021/12/20 08:37:29;;;;;;;0.30;0.20;;;2.30;99.90;;;;;;5072168;28;20530;-87
2021/12/20 08:39:56;;;;;;;0.30;0.10;;;2.30;99.90;;;;;;5059048;28;20478;-87
2021/12/20 08:42:23;;;;;;;0.30;0.10;;;2.30;99.90;;;;;;5050063;28;20946;-87
2021/12/20 08:44:50;;;;;;;0.30;0.10;;;2.30;99.90;;;;;;5052190;28;20499;-87
2021/12/20 08:47:18;;;;;;;0.30;0.10;;;2.30;99.90;;;;;;5069918;28;20448;-87
2021/12/20 08:49:45;;;;;;;0.30;0.10;;;2.20;99.90;;;;;;5069951;28;20439;-88
2021/12/20 08:52:13;;;;;;;0.30;0.10;;;2.20;99.90;;;;;;5068279;28;20467;-87
2021/12/20 08:54:41;;;;;;;0.30;0.20;;;2.20;99.90;;;;;;5069666;28;20533;-87
2021/12/20 08:57:09;;;;;;;0.30;0.10;;;2.20;99.90;;;;;;5069293;28;20520;-88
2021/12/20 08:59:36;;;;;;;0.30;0.10;;;2.20;99.90;;;;;;5069674;28;20497;-88
2021/12/20 09:02:06;;;;;;;0.30;0.20;;;2.30;99.90;;;;;;5068741;28;20438;-88
2021/12/20 09:04:33;;;;;;;0.30;0.10;;;2.50;99.90;;;;;;5069077;28;20847;-87
2021/12/20 09:07:00;;;;;;;0.57;0.57;;;2.60;99.90;;;;;;5071549;28;21000;-88
2021/12/20 09:09:27;;;;;;;0.47;0.30;;;2.70;99.90;;;;;;5072957;28;20451;-87
2021/12/20 09:11:56;;;;;;;1.33;0.50;;;2.80;99.90;;;;;;5072134;28;20466;-87
2021/12/20 09:14:23;;;;;;;0.30;0.10;;;2.90;99.90;;;;;;5071182;28;20789;-88
2021/12/20 09:16:50;;;;;;;0.30;0.20;;;3.00;99.90;;;;;;5073201;28;20988;-88
2021/12/20 09:19:17;;;;;;;0.30;0.10;;;3.00;99.90;;;;;;5072036;28;20955;-87
2021/12/20 09:21:44;;;;;;;0.30;0.10;;;3.10;99.90;;;;;;5064450;28;21002;-88
2021/12/20 09:24:11;;;;;;;0.30;0.10;;;3.20;99.90;;;;;;5073523;28;20531;-87
2021/12/20 09:26:38;;;;;;;2.50;0.87;;;3.30;99.90;;;;;;5066392;28;20204;-87
2021/12/20 09:29:06;;;;;;;0.30;0.10;;;3.30;99.90;;;;;;5072142;28;20531;-87
2021/12/20 09:31:33;;;;;;;0.30;0.10;;;3.40;99.90;;;;;;5080689;28;20506;-87
2021/12/20 09:34:00;;;;;;;0.30;0.10;;;3.50;99.90;;;;;;5087369;28;20461;-87
2021/12/20 09:36:29;;;;;;;0.30;0.10;;;3.60;99.90;;;;;;5084514;28;20504;-87
2021/12/20 09:38:57;;;;;;;0.40;0.30;;;3.80;99.90;;;;;;5072800;28;20482;-87
2021/12/20 09:44:12;;;;;;;0.30;0.10;;;3.90;99.90;;;;;;5062495;28;20574;-87
2021/12/20 09:46:39;;;;;;;0.30;0.20;;;3.90;99.90;;;;;;5052208;28;20589;-87
2021/12/20 09:49:07;;;;;;;0.30;0.10;;;3.70;99.90;;;;;;5064543;28;20544;-88
2021/12/20 09:51:35;;;;;;;0.30;0.20;;;3.70;99.90;;;;;;5072054;28;20512;-87
2021/12/20 09:54:02;;;;;;;0.40;0.20;;;3.70;99.90;;;;;;5072727;28;20440;-87
2021/12/20 09:56:30;;;;;;;0.30;0.10;;;3.70;99.90;;;;;;5072378;28;20443;-87
2021/12/20 09:58:59;;;;;;;0.30;0.10;;;3.40;99.90;;;;;;5068282;28;20516;-88
2021/12/20 10:01:29;;;;;;;0.30;0.10;;;3.30;99.90;;;;;;5072663;28;20902;-87
2021/12/20 10:03:56;;;;;;;0.30;0.10;;;3.20;99.90;;;;;;5065488;28;20456;-87
2021/12/20 10:06:24;;;;;;;0.30;0.10;;;3.20;99.90;;;;;;5052664;28;20590;-88
2021/12/20 10:08:53;;;;;;;0.30;0.10;;;3.20;99.90;;;;;;5057061;28;20440;-88
2021/12/20 10:11:22;;;;;;;0.63;0.40;;;3.30;99.90;;;;;;5064106;28;20847;-89
2021/12/20 10:13:50;;;;;;;0.30;0.10;;;3.60;99.90;;;;;;5071788;28;20444;-88
2021/12/20 10:16:19;;;;;;;0.30;0.10;;;3.80;99.90;;;;;;5071469;28;20463;-88
2021/12/20 10:18:48;;;;;;;0.30;0.20;;;3.80;99.90;;;;;;5070668;28;20447;-88
2021/12/20 10:21:16;;;;;;;0.40;0.40;;;3.80;99.90;;;;;;5071431;28;20510;-88
2021/12/20 10:23:46;;;;;;;0.30;0.10;;;3.90;99.90;;;;;;5071656;28;20431;-88
2021/12/20 10:26:15;;;;;;;0.30;0.10;;;3.90;99.90;;;;;;5070440;28;20500;-88
2021/12/20 10:28:44;;;;;;;0.30;0.10;;;3.90;99.90;;;;;;5080936;28;20489;-88
2021/12/20 10:31:13;;;;;;;0.30;0.10;;;4.10;99.90;;;;;;5090809;28;20532;-88
2021/12/20 10:33:41;;;;;;;0.80;0.30;;;4.30;99.90;;;;;;5069837;28;20525;-88
2021/12/20 10:36:13;;;;;;;0.30;0.10;;;4.40;99.90;;;;;;5070533;28;20440;-86
2021/12/20 10:38:42;;;;;;;0.30;0.20;;;4.30;99.90;;;;;;5069492;28;20468;-88
2021/12/20 10:41:14;;;;;;;0.30;0.10;;;4.00;99.90;;;;;;5061688;28;20935;-88
2021/12/20 10:43:49;;;;;;;0.30;0.13;;;3.90;99.90;;;;;;5071178;28;20432;-87
2021/12/20 10:46:18;;;;;;;0.30;0.10;;;3.70;99.90;;;;;;5070335;28;20510;-88
2021/12/20 10:48:48;;;;;;;1.53;0.30;;;3.70;99.90;;;;;;5070656;28;20875;-88
2021/12/20 10:51:23;;;;;;;0.30;0.10;;;3.90;99.90;;;;;;5071247;28;20435;-88
2021/12/20 10:53:58;;;;;;;0.30;0.10;;;3.90;99.90;;;;;;5070344;28;21109;-88
2021/12/20 10:56:25;;;;;;;0.30;0.10;;;4.00;99.90;;;;;;5070232;28;20473;-87
2021/12/20 10:58:53;;;;;;;0.30;0.20;;;4.00;99.90;;;;;;5069633;28;20547;-88
2021/12/20 11:01:34;;;;;;;1.73;0.40;;;4.00;99.90;;;;;;5070669;28;20440;-90
2021/12/20 11:04:05;;;;;;;0.30;0.10;;;4.00;99.90;;;;;;5071289;28;20458;-90
2021/12/20 11:09:34;;;;;;;0.30;0.10;;;4.20;99.90;;;;;;5069086;28;20475;-90
2021/12/20 11:12:03;;;;;;;0.30;0.10;;;4.30;99.90;;;;;;5070921;28;20444;-87
2021/12/20 11:14:33;;;;;;;0.30;0.10;;;4.40;99.90;;;;;;5069185;28;20941;-86
2021/12/20 11:17:01;;;;;;;0.30;0.10;;;4.40;99.90;;;;;;5059979;28;20845;-87
2021/12/20 11:19:32;;;;;;;0.30;0.20;;;4.40;99.90;;;;;;5064804;28;20724;-86
2021/12/20 11:22:09;;;;;;;0.30;0.10;;;4.40;99.90;;;;;;5069964;28;20447;-87
2021/12/20 11:24:39;;;;;;;0.30;0.20;;;4.50;99.90;;;;;;5071671;28;20450;-86
2021/12/20 11:27:10;;;;;;;0.30;0.10;;;4.40;99.90;;;;;;5086733;28;20439;-87
2021/12/20 11:29:38;;;;;;;0.30;0.20;;;4.30;99.90;;;;;;5084973;28;20502;-86
2021/12/20 11:32:07;;;;;;;0.30;0.10;;;4.20;99.90;;;;;;5071460;28;20508;-86
2021/12/20 11:34:35;;;;;;;0.30;0.10;;;4.20;99.90;;;;;;5070260;28;20489;-86
2021/12/20 11:37:03;;;;;;;0.30;0.20;;;4.10;99.90;;;;;;5070450;28;20435;-86
2021/12/20 11:39:31;;;;;;;2.70;2.60;;;4.10;99.90;;;;;;5068890;28;20582;-87
2021/12/20 11:41:58;;;;;;;0.70;0.33;;;4.00;99.90;;;;;;5070217;28;20444;-88
2021/12/20 11:44:29;;;;;;;1.50;0.60;;;4.00;99.90;;;;;;5070363;28;20481;-88
2021/12/20 11:47:07;;;;;;;0.30;0.10;;;4.00;99.90;;;;;;5069831;28;20902;-87
2021/12/20 11:49:34;;;;;;;0.30;0.10;;;4.00;99.90;;;;;;5068607;28;20509;-88
2021/12/20 11:52:14;;;;;;;0.30;0.10;;;4.00;99.90;;;;;;5069812;28;20526;-89
2021/12/20 11:54:46;;;;;;;0.30;0.10;;;3.80;99.90;;;;;;5065950;28;20523;-89
2021/12/20 11:57:33;;;;;;;0.30;0.10;;;3.90;99.90;;;;;;5069264;28;20443;-89
2021/12/20 12:00:02;;;;;;;0.43;0.43;;;3.70;99.90;;;;;;5070151;28;20451;-88
2021/12/20 12:02:30;;;;;;;0.30;0.20;;;3.70;99.90;;;;;;5068202;28;20475;-89
2021/12/20 12:04:59;;;;;;;0.30;0.10;;;3.70;99.90;;;;;;5069814;28;20544;-88
2021/12/20 12:07:28;;;;;;;0.40;0.20;;;3.70;99.90;;;;;;5069331;28;20895;-89
2021/12/20 12:10:02;;;;;;;0.30;0.20;;;3.70;99.90;;;;;;5068240;28;20578;-89
2021/12/20 12:12:30;;;;;;;0.30;0.10;;;3.70;99.90;;;;;;5069837;28;20455;-89
2021/12/20 12:15:04;;;;;;;0.30;0.10;;;3.80;99.90;;;;;;5067120;28;20463;-87
2021/12/20 12:17:50;;;;;;;0.30;0.10;;;3.90;99.90;;;;;;5070072;28;20470;-87
2021/12/20 12:20:41;;;;;;;0.30;0.10;;;3.90;99.90;;;;;;5068439;28;21023;-89
2021/12/20 12:23:16;;;;;;;0.30;0.10;;;3.90;99.90;;;;;;5091004;28;20462;-89
2021/12/20 12:25:47;;;;;;;0.50;0.20;;;3.90;99.90;;;;;;5088506;28;20505;-86
2021/12/20 12:28:16;;;;;;;0.30;0.10;;;3.90;99.90;;;;;;5063553;28;20881;-85
2021/12/20 12:30:55;;;;;;;0.30;0.10;;;3.90;99.90;;;;;;5051021;28;20465;-89
2021/12/20 12:33:30;;;;;;;0.30;0.10;;;3.90;99.90;;;;;;5053791;28;20843;-86
2021/12/20 12:36:06;;;;;;;0.30;0.10;;;3.90;99.90;;;;;;5069391;28;20443;-86
2021/12/20 12:38:36;;;;;;;0.33;0.17;;;4.00;99.90;;;;;;5068648;28;20533;-88
2021/12/20 12:41:19;;;;;;;0.30;0.10;;;4.00;99.90;;;;;;5068716;28;20545;-88
2021/12/20 12:43:56;;;;;;;0.30;0.10;;;4.10;99.90;;;;;;5071089;28;20443;-88
2021/12/20 12:46:46;;;;;;;0.30;0.10;;;4.00;99.90;;;;;;5072683;28;20486;-87
2021/12/20 12:49:34;;;;;;;0.30;0.20;;;4.00;99.90;;;;;;5071064;28;20463;-88
2021/12/20 12:52:05;;;;;;;0.30;0.10;;;4.00;99.90;;;;;;5059281;28;20491;-88
2021/12/20 12:54:41;;;;;;;0.30;0.10;;;4.00;99.90;;;;;;5072542;28;20930;-88
2021/12/20 12:57:30;;;;;;;0.30;0.10;;;4.00;99.90;;;;;;5072162;28;20550;-86
2021/12/20 13:00:27;;;;;;;0.30;0.10;;;4.00;99.90;;;;;;5073345;28;20439;-86
2021/12/20 13:03:07;;;;;;;0.30;0.10;;;4.20;99.90;;;;;;5055354;28;20944;-86
2021/12/20 13:05:35;;;;;;;0.30;0.10;;;4.20;99.90;;;;;;5073039;28;20544;-86
2021/12/20 13:08:03;;;;;;;0.30;0.10;;;4.00;99.90;;;;;;5073186;28;20479;-86
2021/12/20 13:10:35;;;;;;;0.30;0.10;;;4.00;99.90;;;;;;5071709;28;20459;-87
2021/12/20 13:13:08;;;;;;;0.30;0.10;;;3.90;99.90;;;;;;5073458;28;20469;-85
2021/12/20 13:15:40;;;;;;;0.30;0.10;;;3.80;99.90;;;;;;5072627;28;20537;-86
2021/12/20 13:18:10;;;;;;;0.30;0.20;;;3.80;99.90;;;;;;5073108;28;20530;-86
2021/12/20 13:20:47;;;;;;;0.30;0.10;;;3.80;99.90;;;;;;5091512;28;20469;-85